sensor_id;sensor_type;location;lat;lon;timestamp;temperature;humidity
58809;DHT22;44579;51.672;7.834;2022-12-18T00:00:06;-7.90;90.80
58809;DHT22;44579;51.672;7.834;2022-12-18T00:02:39;-7.90;90.80
58809;DHT22;44579;51.672;7.834;2022-12-18T00:05:06;-8.00;90.80
58809;DHT22;44579;51.672;7.834;2022-12-18T00:07:33;-8.00;90.90
58809;DHT22;44579;51.672;7.834;2022-12-18T00:10:00;-7.90;91.00
58809;DHT22;44579;51.672;7.834;2022-12-18T00:12:27;-7.90;91.10
58809;DHT22;44579;51.672;7.834;2022-12-18T00:14:55;-7.90;91.00
58809;DHT22;44579;51.672;7.834;2022-12-18T00:17:23;-7.90;91.00
58809;DHT22;44579;51.672;7.834;2022-12-18T00:19:49;-7.90;90.90
58809;DHT22;44579;51.672;7.834;2022-12-18T00:22:16;-7.90;90.90
58809;DHT22;44579;51.672;7.834;2022-12-18T00:24:43;-7.90;90.80
58809;DHT22;44579;51.672;7.834;2022-12-18T00:27:09;-7.90;90.70
58809;DHT22;44579;51.672;7.834;2022-12-18T00:29:36;-7.90;90.70
58809;DHT22;44579;51.672;7.834;2022-12-18T00:32:05;-7.90;90.70
58809;DHT22;44579;51.672;7.834;2022-12-18T00:34:32;-7.90;90.70
58809;DHT22;44579;51.672;7.834;2022-12-18T00:36:58;-8.00;90.70
58809;DHT22;44579;51.672;7.834;2022-12-18T00:39:25;-8.00;90.70
58809;DHT22;44579;51.672;7.834;2022-12-18T00:41:52;-8.00;90.70
58809;DHT22;44579;51.672;7.834;2022-12-18T00:44:38;-8.00;90.70
58809;DHT22;44579;51.672;7.834;2022-12-18T00:47:05;-8.00;90.70
58809;DHT22;44579;51.672;7.834;2022-12-18T00:49:32;-8.00;90.70
58809;DHT22;44579;51.672;7.834;2022-12-18T00:51:59;-8.10;90.70
58809;DHT22;44579;51.672;7.834;2022-12-18T00:54:26;-8.10;90.70
58809;DHT22;44579;51.672;7.834;2022-12-18T00:56:53;-8.10;90.70
58809;DHT22;44579;51.672;7.834;2022-12-18T00:59:21;-8.10;90.70
58809;DHT22;44579;51.672;7.834;2022-12-18T01:01:49;-8.20;90.70
58809;DHT22;44579;51.672;7.834;2022-12-18T01:04:16;-8.20;90.70
58809;DHT22;44579;51.672;7.834;2022-12-18T01:06:44;-8.20;90.70
58809;DHT22;44579;51.672;7.834;2022-12-18T01:09:11;-8.20;90.60
58809;DHT22;44579;51.672;7.834;2022-12-18T01:11:38;-8.20;90.60
58809;DHT22;44579;51.672;7.834;2022-12-18T01:14:05;-8.20;90.60
58809;DHT22;44579;51.672;7.834;2022-12-18T01:16:32;-8.20;90.60
58809;DHT22;44579;51.672;7.834;2022-12-18T01:18:59;-8.30;90.60
58809;DHT22;44579;51.672;7.834;2022-12-18T01:21:26;-8.30;90.50
58809;DHT22;44579;51.672;7.834;2022-12-18T01:23:54;-8.30;90.50
58809;DHT22;44579;51.672;7.834;2022-12-18T01:26:22;-8.30;90.50
58809;DHT22;44579;51.672;7.834;2022-12-18T01:28:50;-8.30;90.50
58809;DHT22;44579;51.672;7.834;2022-12-18T01:31:22;-8.30;90.40
58809;DHT22;44579;51.672;7.834;2022-12-18T01:33:50;-8.30;90.50
58809;DHT22;44579;51.672;7.834;2022-12-18T01:36:21;-8.30;90.50
58809;DHT22;44579;51.672;7.834;2022-12-18T01:38:47;-8.40;90.50
58809;DHT22;44579;51.672;7.834;2022-12-18T01:41:16;-8.40;90.50
58809;DHT22;44579;51.672;7.834;2022-12-18T01:43:56;-8.40;90.60
58809;DHT22;44579;51.672;7.834;2022-12-18T01:46:26;-8.40;90.50
58809;DHT22;44579;51.672;7.834;2022-12-18T01:48:56;-8.40;90.50
58809;DHT22;44579;51.672;7.834;2022-12-18T01:51:24;-8.40;90.50
58809;DHT22;44579;51.672;7.834;2022-12-18T01:53:52;-8.40;90.40
58809;DHT22;44579;51.672;7.834;2022-12-18T01:56:19;-8.50;90.40
58809;DHT22;44579;51.672;7.834;2022-12-18T02:01:21;-8.50;90.40
58809;DHT22;44579;51.672;7.834;2022-12-18T02:03:49;-8.50;90.50
58809;DHT22;44579;51.672;7.834;2022-12-18T02:06:18;-8.40;90.50
58809;DHT22;44579;51.672;7.834;2022-12-18T02:16:36;-8.50;90.40
58809;DHT22;44579;51.672;7.834;2022-12-18T02:19:06;-8.50;90.40
58809;DHT22;44579;51.672;7.834;2022-12-18T02:26:43;-8.50;90.30
58809;DHT22;44579;51.672;7.834;2022-12-18T02:29:22;-8.50;90.30
58809;DHT22;44579;51.672;7.834;2022-12-18T02:31:51;-8.50;90.30
58809;DHT22;44579;51.672;7.834;2022-12-18T02:34:19;-8.50;90.30
58809;DHT22;44579;51.672;7.834;2022-12-18T02:36:48;-8.60;90.30
58809;DHT22;44579;51.672;7.834;2022-12-18T02:39:16;-8.60;90.30
58809;DHT22;44579;51.672;7.834;2022-12-18T02:41:55;-8.60;90.30
58809;DHT22;44579;51.672;7.834;2022-12-18T02:44:24;-8.50;90.70
58809;DHT22;44579;51.672;7.834;2022-12-18T02:46:51;-8.60;90.30
58809;DHT22;44579;51.672;7.834;2022-12-18T02:54:29;-8.60;90.10
58809;DHT22;44579;51.672;7.834;2022-12-18T02:57:05;-8.60;90.20
58809;DHT22;44579;51.672;7.834;2022-12-18T02:59:39;-8.60;90.20
58809;DHT22;44579;51.672;7.834;2022-12-18T03:02:17;-8.60;90.20
58809;DHT22;44579;51.672;7.834;2022-12-18T03:04:49;-8.60;90.20
58809;DHT22;44579;51.672;7.834;2022-12-18T03:07:20;-8.70;90.20
58809;DHT22;44579;51.672;7.834;2022-12-18T03:09:51;-8.70;90.20
58809;DHT22;44579;51.672;7.834;2022-12-18T03:12:30;-8.70;90.20
58809;DHT22;44579;51.672;7.834;2022-12-18T03:15:02;-8.80;90.20
58809;DHT22;44579;51.672;7.834;2022-12-18T03:17:31;-8.80;90.20
58809;DHT22;44579;51.672;7.834;2022-12-18T03:19:59;-8.80;90.20
58809;DHT22;44579;51.672;7.834;2022-12-18T03:22:32;-8.80;90.20
58809;DHT22;44579;51.672;7.834;2022-12-18T03:25:00;-8.80;90.20
58809;DHT22;44579;51.672;7.834;2022-12-18T03:27:28;-8.80;90.20
58809;DHT22;44579;51.672;7.834;2022-12-18T03:30:03;-8.80;90.20
58809;DHT22;44579;51.672;7.834;2022-12-18T03:32:39;-8.80;90.10
58809;DHT22;44579;51.672;7.834;2022-12-18T03:35:08;-8.80;90.10
58809;DHT22;44579;51.672;7.834;2022-12-18T03:37:37;-8.80;90.20
58809;DHT22;44579;51.672;7.834;2022-12-18T03:40:04;-8.80;90.20
58809;DHT22;44579;51.672;7.834;2022-12-18T03:42:39;-8.80;90.20
58809;DHT22;44579;51.672;7.834;2022-12-18T03:45:13;-8.80;90.20
58809;DHT22;44579;51.672;7.834;2022-12-18T03:50:14;-8.80;90.20
58809;DHT22;44579;51.672;7.834;2022-12-18T03:52:51;-8.80;90.30
58809;DHT22;44579;51.672;7.834;2022-12-18T03:55:21;-8.80;90.20
58809;DHT22;44579;51.672;7.834;2022-12-18T03:57:55;-8.80;90.20
58809;DHT22;44579;51.672;7.834;2022-12-18T04:00:29;-8.80;90.60
58809;DHT22;44579;51.672;7.834;2022-12-18T04:03:05;-8.80;90.20
58809;DHT22;44579;51.672;7.834;2022-12-18T04:05:39;-8.80;90.20
58809;DHT22;44579;51.672;7.834;2022-12-18T04:08:07;-8.90;90.20
58809;DHT22;44579;51.672;7.834;2022-12-18T04:10:38;-8.90;90.20
58809;DHT22;44579;51.672;7.834;2022-12-18T04:13:05;-8.90;90.20
58809;DHT22;44579;51.672;7.834;2022-12-18T04:15:33;-8.90;90.20
58809;DHT22;44579;51.672;7.834;2022-12-18T04:18:02;-8.90;90.20
58809;DHT22;44579;51.672;7.834;2022-12-18T04:20:36;-8.90;90.20
58809;DHT22;44579;51.672;7.834;2022-12-18T04:23:03;-8.90;90.10
58809;DHT22;44579;51.672;7.834;2022-12-18T04:25:30;-8.90;90.10
58809;DHT22;44579;51.672;7.834;2022-12-18T04:28:06;-8.90;90.10
58809;DHT22;44579;51.672;7.834;2022-12-18T04:30:34;-8.90;90.10
58809;DHT22;44579;51.672;7.834;2022-12-18T04:33:01;-8.90;90.40
58809;DHT22;44579;51.672;7.834;2022-12-18T04:35:30;-9.00;90.00
58809;DHT22;44579;51.672;7.834;2022-12-18T04:37:56;-9.00;90.00
58809;DHT22;44579;51.672;7.834;2022-12-18T04:40:23;-9.00;90.00
58809;DHT22;44579;51.672;7.834;2022-12-18T04:42:50;-9.10;90.00
58809;DHT22;44579;51.672;7.834;2022-12-18T04:45:17;-9.00;90.00
58809;DHT22;44579;51.672;7.834;2022-12-18T04:47:44;-9.10;90.00
58809;DHT22;44579;51.672;7.834;2022-12-18T04:50:11;-9.00;90.00
58809;DHT22;44579;51.672;7.834;2022-12-18T04:52:38;-9.00;90.10
58809;DHT22;44579;51.672;7.834;2022-12-18T04:55:05;-9.00;90.10
58809;DHT22;44579;51.672;7.834;2022-12-18T04:57:32;-9.00;90.00
58809;DHT22;44579;51.672;7.834;2022-12-18T04:59:58;-9.00;90.00
58809;DHT22;44579;51.672;7.834;2022-12-18T05:02:25;-9.00;90.00
58809;DHT22;44579;51.672;7.834;2022-12-18T05:04:54;-9.10;90.00
58809;DHT22;44579;51.672;7.834;2022-12-18T05:07:21;-9.00;90.00
58809;DHT22;44579;51.672;7.834;2022-12-18T05:09:48;-9.00;90.00
58809;DHT22;44579;51.672;7.834;2022-12-18T05:12:15;-9.00;90.00
58809;DHT22;44579;51.672;7.834;2022-12-18T05:14:41;-9.00;90.00
58809;DHT22;44579;51.672;7.834;2022-12-18T05:17:08;-9.00;90.00
58809;DHT22;44579;51.672;7.834;2022-12-18T05:19:35;-9.00;90.00
58809;DHT22;44579;51.672;7.834;2022-12-18T05:22:02;-9.00;90.00
58809;DHT22;44579;51.672;7.834;2022-12-18T05:24:29;-9.10;89.90
58809;DHT22;44579;51.672;7.834;2022-12-18T05:26:55;-9.00;90.00
58809;DHT22;44579;51.672;7.834;2022-12-18T05:29:22;-9.00;90.00
58809;DHT22;44579;51.672;7.834;2022-12-18T05:31:49;-9.00;90.00
58809;DHT22;44579;51.672;7.834;2022-12-18T05:34:16;-9.00;90.10
58809;DHT22;44579;51.672;7.834;2022-12-18T05:36:43;-9.00;90.10
58809;DHT22;44579;51.672;7.834;2022-12-18T05:39:10;-9.00;90.20
58809;DHT22;44579;51.672;7.834;2022-12-18T05:41:37;-9.00;90.10
58809;DHT22;44579;51.672;7.834;2022-12-18T05:44:04;-8.90;90.10
58809;DHT22;44579;51.672;7.834;2022-12-18T05:46:31;-9.00;90.10
58809;DHT22;44579;51.672;7.834;2022-12-18T05:48:59;-9.00;90.10
58809;DHT22;44579;51.672;7.834;2022-12-18T05:51:27;-9.00;90.20
58809;DHT22;44579;51.672;7.834;2022-12-18T05:53:54;-9.00;90.20
58809;DHT22;44579;51.672;7.834;2022-12-18T05:56:21;-8.90;90.20
58809;DHT22;44579;51.672;7.834;2022-12-18T05:58:51;-9.00;90.20
58809;DHT22;44579;51.672;7.834;2022-12-18T06:01:20;-8.90;90.30
58809;DHT22;44579;51.672;7.834;2022-12-18T06:03:47;-9.00;90.30
58809;DHT22;44579;51.672;7.834;2022-12-18T06:06:20;-8.90;90.40
58809;DHT22;44579;51.672;7.834;2022-12-18T06:08:47;-8.90;90.40
58809;DHT22;44579;51.672;7.834;2022-12-18T06:11:17;-8.90;90.40
58809;DHT22;44579;51.672;7.834;2022-12-18T06:13:44;-8.90;90.40
58809;DHT22;44579;51.672;7.834;2022-12-18T06:16:11;-8.90;90.30
58809;DHT22;44579;51.672;7.834;2022-12-18T06:18:37;-8.90;90.40
58809;DHT22;44579;51.672;7.834;2022-12-18T06:21:04;-8.90;90.30
58809;DHT22;44579;51.672;7.834;2022-12-18T06:23:31;-8.90;90.30
58809;DHT22;44579;51.672;7.834;2022-12-18T06:25:58;-8.90;90.30
58809;DHT22;44579;51.672;7.834;2022-12-18T06:28:24;-8.90;90.20
58809;DHT22;44579;51.672;7.834;2022-12-18T06:30:51;-9.00;90.20
58809;DHT22;44579;51.672;7.834;2022-12-18T06:33:18;-9.00;90.20
58809;DHT22;44579;51.672;7.834;2022-12-18T06:35:44;-9.10;90.20
58809;DHT22;44579;51.672;7.834;2022-12-18T06:38:11;-9.10;90.20
58809;DHT22;44579;51.672;7.834;2022-12-18T06:40:38;-9.10;90.20
58809;DHT22;44579;51.672;7.834;2022-12-18T06:43:05;-9.10;90.20
58809;DHT22;44579;51.672;7.834;2022-12-18T06:45:32;-9.10;90.20
58809;DHT22;44579;51.672;7.834;2022-12-18T06:47:59;-9.10;90.20
58809;DHT22;44579;51.672;7.834;2022-12-18T06:50:25;-9.20;90.20
58809;DHT22;44579;51.672;7.834;2022-12-18T06:52:52;-9.20;90.10
58809;DHT22;44579;51.672;7.834;2022-12-18T06:55:19;-9.20;90.20
58809;DHT22;44579;51.672;7.834;2022-12-18T06:57:46;-9.20;90.10
58809;DHT22;44579;51.672;7.834;2022-12-18T07:00:13;-9.20;90.10
58809;DHT22;44579;51.672;7.834;2022-12-18T07:02:40;-9.20;90.20
58809;DHT22;44579;51.672;7.834;2022-12-18T07:05:07;-9.20;90.20
58809;DHT22;44579;51.672;7.834;2022-12-18T07:07:36;-9.10;90.20
58809;DHT22;44579;51.672;7.834;2022-12-18T07:10:03;-9.20;90.20
58809;DHT22;44579;51.672;7.834;2022-12-18T07:12:30;-9.10;90.20
58809;DHT22;44579;51.672;7.834;2022-12-18T07:14:57;-9.20;90.20
58809;DHT22;44579;51.672;7.834;2022-12-18T07:17:24;-9.10;90.30
58809;DHT22;44579;51.672;7.834;2022-12-18T07:19:50;-9.10;90.30
58809;DHT22;44579;51.672;7.834;2022-12-18T07:22:17;-9.10;90.30
58809;DHT22;44579;51.672;7.834;2022-12-18T07:24:44;-9.10;90.30
58809;DHT22;44579;51.672;7.834;2022-12-18T07:27:10;-9.10;90.30
58809;DHT22;44579;51.672;7.834;2022-12-18T07:29:37;-9.10;90.30
58809;DHT22;44579;51.672;7.834;2022-12-18T07:32:05;-9.10;90.40
58809;DHT22;44579;51.672;7.834;2022-12-18T07:34:32;-9.10;90.40
58809;DHT22;44579;51.672;7.834;2022-12-18T07:37:02;-9.10;90.40
58809;DHT22;44579;51.672;7.834;2022-12-18T07:39:29;-9.10;90.40
58809;DHT22;44579;51.672;7.834;2022-12-18T07:41:56;-9.10;90.40
58809;DHT22;44579;51.672;7.834;2022-12-18T07:44:42;-9.00;90.40
58809;DHT22;44579;51.672;7.834;2022-12-18T07:47:09;-9.00;90.40
58809;DHT22;44579;51.672;7.834;2022-12-18T07:49:37;-9.10;90.40
58809;DHT22;44579;51.672;7.834;2022-12-18T07:52:04;-9.00;90.50
58809;DHT22;44579;51.672;7.834;2022-12-18T07:54:31;-9.00;90.50
58809;DHT22;44579;51.672;7.834;2022-12-18T07:56:58;-9.00;90.60
58809;DHT22;44579;51.672;7.834;2022-12-18T07:59:24;-8.90;90.60
58809;DHT22;44579;51.672;7.834;2022-12-18T08:01:51;-8.90;90.60
58809;DHT22;44579;51.672;7.834;2022-12-18T08:04:18;-8.80;90.70
58809;DHT22;44579;51.672;7.834;2022-12-18T08:06:45;-8.80;90.70
58809;DHT22;44579;51.672;7.834;2022-12-18T08:09:14;-8.80;90.70
58809;DHT22;44579;51.672;7.834;2022-12-18T08:11:40;-8.70;90.70
58809;DHT22;44579;51.672;7.834;2022-12-18T08:14:07;-8.70;90.80
58809;DHT22;44579;51.672;7.834;2022-12-18T08:16:34;-8.60;90.90
58809;DHT22;44579;51.672;7.834;2022-12-18T08:19:01;-8.60;91.00
58809;DHT22;44579;51.672;7.834;2022-12-18T08:21:28;-8.60;91.00
58809;DHT22;44579;51.672;7.834;2022-12-18T08:23:56;-8.50;91.10
58809;DHT22;44579;51.672;7.834;2022-12-18T08:26:23;-8.40;91.20
58809;DHT22;44579;51.672;7.834;2022-12-18T08:28:50;-8.30;91.30
58809;DHT22;44579;51.672;7.834;2022-12-18T08:31:17;-8.20;91.40
58809;DHT22;44579;51.672;7.834;2022-12-18T08:33:45;-8.20;91.50
58809;DHT22;44579;51.672;7.834;2022-12-18T08:36:12;-8.10;91.60
58809;DHT22;44579;51.672;7.834;2022-12-18T08:38:39;-8.10;91.70
58809;DHT22;44579;51.672;7.834;2022-12-18T08:41:09;-8.00;91.70
58809;DHT22;44579;51.672;7.834;2022-12-18T08:43:35;-7.90;91.80
58809;DHT22;44579;51.672;7.834;2022-12-18T08:46:21;-7.80;92.10
58809;DHT22;44579;51.672;7.834;2022-12-18T08:48:50;-7.80;92.00
58809;DHT22;44579;51.672;7.834;2022-12-18T08:51:17;-7.70;92.10
58809;DHT22;44579;51.672;7.834;2022-12-18T08:53:44;-7.70;92.20
58809;DHT22;44579;51.672;7.834;2022-12-18T08:56:11;-7.60;92.30
58809;DHT22;44579;51.672;7.834;2022-12-18T08:58:38;-7.50;92.40
58809;DHT22;44579;51.672;7.834;2022-12-18T09:01:06;-7.50;92.50
58809;DHT22;44579;51.672;7.834;2022-12-18T09:03:33;-7.40;92.60
58809;DHT22;44579;51.672;7.834;2022-12-18T09:06:00;-7.40;92.80
58809;DHT22;44579;51.672;7.834;2022-12-18T09:08:27;-7.30;92.90
58809;DHT22;44579;51.672;7.834;2022-12-18T09:10:54;-7.20;93.10
58809;DHT22;44579;51.672;7.834;2022-12-18T09:13:21;-7.10;93.30
58809;DHT22;44579;51.672;7.834;2022-12-18T09:15:52;-7.00;93.40
58809;DHT22;44579;51.672;7.834;2022-12-18T09:18:20;-7.00;93.40
58809;DHT22;44579;51.672;7.834;2022-12-18T09:20:47;-6.90;93.50
58809;DHT22;44579;51.672;7.834;2022-12-18T09:23:14;-6.90;93.60
58809;DHT22;44579;51.672;7.834;2022-12-18T09:25:41;-6.90;93.70
58809;DHT22;44579;51.672;7.834;2022-12-18T09:28:12;-6.90;93.70
58809;DHT22;44579;51.672;7.834;2022-12-18T09:30:49;-6.80;93.80
58809;DHT22;44579;51.672;7.834;2022-12-18T09:33:16;-6.80;93.90
58809;DHT22;44579;51.672;7.834;2022-12-18T09:35:43;-6.70;94.10
58809;DHT22;44579;51.672;7.834;2022-12-18T09:38:12;-6.60;94.20
58809;DHT22;44579;51.672;7.834;2022-12-18T09:40:47;-6.60;94.30
58809;DHT22;44579;51.672;7.834;2022-12-18T09:43:16;-6.50;94.40
58809;DHT22;44579;51.672;7.834;2022-12-18T09:45:46;-6.50;94.40
58809;DHT22;44579;51.672;7.834;2022-12-18T09:48:15;-6.40;94.50
58809;DHT22;44579;51.672;7.834;2022-12-18T09:50:44;-6.40;94.50
58809;DHT22;44579;51.672;7.834;2022-12-18T09:53:22;-6.40;94.50
58809;DHT22;44579;51.672;7.834;2022-12-18T09:55:49;-6.30;94.60
58809;DHT22;44579;51.672;7.834;2022-12-18T10:00:47;-6.30;94.80
58809;DHT22;44579;51.672;7.834;2022-12-18T10:03:14;-6.20;94.90
58809;DHT22;44579;51.672;7.834;2022-12-18T10:05:45;-6.20;95.00
58809;DHT22;44579;51.672;7.834;2022-12-18T10:08:34;-6.10;95.10
58809;DHT22;44579;51.672;7.834;2022-12-18T10:13:54;-5.90;95.30
58809;DHT22;44579;51.672;7.834;2022-12-18T10:16:38;-5.80;95.30
58809;DHT22;44579;51.672;7.834;2022-12-18T10:21:46;-5.60;95.50
58809;DHT22;44579;51.672;7.834;2022-12-18T10:26:46;-5.40;95.60
58809;DHT22;44579;51.672;7.834;2022-12-18T10:29:14;-5.30;95.70
58809;DHT22;44579;51.672;7.834;2022-12-18T10:31:41;-5.20;95.70
58809;DHT22;44579;51.672;7.834;2022-12-18T10:34:14;-5.20;95.70
58809;DHT22;44579;51.672;7.834;2022-12-18T10:36:41;-5.10;96.10
58809;DHT22;44579;51.672;7.834;2022-12-18T10:39:19;-5.00;95.70
58809;DHT22;44579;51.672;7.834;2022-12-18T10:41:46;-4.90;95.80
58809;DHT22;44579;51.672;7.834;2022-12-18T10:44:18;-4.80;95.90
58809;DHT22;44579;51.672;7.834;2022-12-18T10:46:46;-4.80;95.90
58809;DHT22;44579;51.672;7.834;2022-12-18T10:49:22;-4.70;95.90
58809;DHT22;44579;51.672;7.834;2022-12-18T10:51:49;-4.70;95.90
58809;DHT22;44579;51.672;7.834;2022-12-18T10:54:18;-4.60;95.90
58809;DHT22;44579;51.672;7.834;2022-12-18T10:56:47;-4.50;96.00
58809;DHT22;44579;51.672;7.834;2022-12-18T10:59:16;-4.40;96.00
58809;DHT22;44579;51.672;7.834;2022-12-18T11:04:32;-4.20;96.00
58809;DHT22;44579;51.672;7.834;2022-12-18T11:07:03;-4.10;95.90
58809;DHT22;44579;51.672;7.834;2022-12-18T11:11:58;-4.00;95.90
58809;DHT22;44579;51.672;7.834;2022-12-18T11:14:30;-3.90;95.80
58809;DHT22;44579;51.672;7.834;2022-12-18T11:16:58;-3.90;95.80
58809;DHT22;44579;51.672;7.834;2022-12-18T11:19:45;-3.80;95.80
58809;DHT22;44579;51.672;7.834;2022-12-18T11:22:23;-3.70;95.90
58809;DHT22;44579;51.672;7.834;2022-12-18T11:27:47;-3.60;95.90
58809;DHT22;44579;51.672;7.834;2022-12-18T11:30:21;-3.50;95.90
58809;DHT22;44579;51.672;7.834;2022-12-18T11:32:50;-3.50;95.80
58809;DHT22;44579;51.672;7.834;2022-12-18T11:38:06;-3.40;95.80
58809;DHT22;44579;51.672;7.834;2022-12-18T11:40:36;-3.30;95.90
58809;DHT22;44579;51.672;7.834;2022-12-18T11:43:11;-3.20;96.00
58809;DHT22;44579;51.672;7.834;2022-12-18T11:45:45;-3.10;95.80
58809;DHT22;44579;51.672;7.834;2022-12-18T11:48:14;-3.10;95.70
58809;DHT22;44579;51.672;7.834;2022-12-18T11:53:13;-3.10;95.80
58809;DHT22;44579;51.672;7.834;2022-12-18T12:04:01;-3.00;95.80
58809;DHT22;44579;51.672;7.834;2022-12-18T12:09:04;-2.90;95.80
58809;DHT22;44579;51.672;7.834;2022-12-18T12:17:50;-2.80;96.10
58809;DHT22;44579;51.672;7.834;2022-12-18T12:30:00;-2.80;95.80
58809;DHT22;44579;51.672;7.834;2022-12-18T12:37:58;-2.60;95.80
58809;DHT22;44579;51.672;7.834;2022-12-18T12:40:30;-2.60;95.70
58809;DHT22;44579;51.672;7.834;2022-12-18T12:43:27;-2.60;95.70
58809;DHT22;44579;51.672;7.834;2022-12-18T12:45:55;-2.60;95.80
58809;DHT22;44579;51.672;7.834;2022-12-18T12:48:31;-2.50;95.80
58809;DHT22;44579;51.672;7.834;2022-12-18T12:51:43;-2.50;95.70
58809;DHT22;44579;51.672;7.834;2022-12-18T12:53:50;-2.40;95.70
58809;DHT22;44579;51.672;7.834;2022-12-18T12:56:19;-2.40;95.70
58809;DHT22;44579;51.672;7.834;2022-12-18T12:58:49;-2.30;95.70
58809;DHT22;44579;51.672;7.834;2022-12-18T13:08:52;-2.20;95.60
58809;DHT22;44579;51.672;7.834;2022-12-18T13:11:35;-2.20;95.60
58809;DHT22;44579;51.672;7.834;2022-12-18T13:14:38;-2.20;95.60
58809;DHT22;44579;51.672;7.834;2022-12-18T13:17:24;-2.20;95.70
58809;DHT22;44579;51.672;7.834;2022-12-18T13:20:29;-2.20;95.70
58809;DHT22;44579;51.672;7.834;2022-12-18T13:22:49;-2.20;95.70
58809;DHT22;44579;51.672;7.834;2022-12-18T13:25:36;-2.20;95.80
58809;DHT22;44579;51.672;7.834;2022-12-18T13:28:14;-2.20;95.70
58809;DHT22;44579;51.672;7.834;2022-12-18T13:30:49;-2.20;95.80
58809;DHT22;44579;51.672;7.834;2022-12-18T13:36:31;-2.30;95.80
58809;DHT22;44579;51.672;7.834;2022-12-18T13:38:39;-2.30;95.80
58809;DHT22;44579;51.672;7.834;2022-12-18T13:43:46;-2.30;95.90
58809;DHT22;44579;51.672;7.834;2022-12-18T13:49:01;-2.30;95.90
58809;DHT22;44579;51.672;7.834;2022-12-18T13:51:28;-2.20;96.00
58809;DHT22;44579;51.672;7.834;2022-12-18T13:54:06;-2.20;96.30
58809;DHT22;44579;51.672;7.834;2022-12-18T13:56:42;-2.20;95.90
58809;DHT22;44579;51.672;7.834;2022-12-18T13:59:16;-2.30;95.90
58809;DHT22;44579;51.672;7.834;2022-12-18T14:01:44;-2.20;96.00
58809;DHT22;44579;51.672;7.834;2022-12-18T14:04:18;-2.30;95.90
58809;DHT22;44579;51.672;7.834;2022-12-18T14:06:45;-2.20;96.00
58809;DHT22;44579;51.672;7.834;2022-12-18T14:09:13;-2.20;96.00
58809;DHT22;44579;51.672;7.834;2022-12-18T14:11:47;-2.20;96.00
58809;DHT22;44579;51.672;7.834;2022-12-18T14:14:15;-2.20;96.00
58809;DHT22;44579;51.672;7.834;2022-12-18T14:16:42;-2.20;96.00
58809;DHT22;44579;51.672;7.834;2022-12-18T14:19:15;-2.30;96.00
58809;DHT22;44579;51.672;7.834;2022-12-18T14:21:46;-2.20;96.10
58809;DHT22;44579;51.672;7.834;2022-12-18T14:24:15;-2.30;96.10
58809;DHT22;44579;51.672;7.834;2022-12-18T14:26:45;-2.30;96.10
58809;DHT22;44579;51.672;7.834;2022-12-18T14:29:24;-2.30;96.10
58809;DHT22;44579;51.672;7.834;2022-12-18T14:32:09;-2.30;96.10
58809;DHT22;44579;51.672;7.834;2022-12-18T14:34:47;-2.30;96.10
58809;DHT22;44579;51.672;7.834;2022-12-18T14:37:15;-2.30;96.00
58809;DHT22;44579;51.672;7.834;2022-12-18T14:39:53;-2.30;96.00
58809;DHT22;44579;51.672;7.834;2022-12-18T14:42:20;-2.30;96.00
58809;DHT22;44579;51.672;7.834;2022-12-18T14:44:47;-2.40;96.00
58809;DHT22;44579;51.672;7.834;2022-12-18T14:47:34;-2.30;96.10
58809;DHT22;44579;51.672;7.834;2022-12-18T14:50:00;-2.40;96.00
58809;DHT22;44579;51.672;7.834;2022-12-18T14:52:27;-2.40;96.00
58809;DHT22;44579;51.672;7.834;2022-12-18T14:54:55;-2.40;96.00
58809;DHT22;44579;51.672;7.834;2022-12-18T14:57:25;-2.40;96.00
58809;DHT22;44579;51.672;7.834;2022-12-18T15:00:03;-2.40;96.10
58809;DHT22;44579;51.672;7.834;2022-12-18T15:02:30;-2.40;96.20
58809;DHT22;44579;51.672;7.834;2022-12-18T15:05:05;-2.40;96.20
58809;DHT22;44579;51.672;7.834;2022-12-18T15:07:49;-2.40;96.20
58809;DHT22;44579;51.672;7.834;2022-12-18T15:10:17;-2.40;96.10
58809;DHT22;44579;51.672;7.834;2022-12-18T15:12:45;-2.40;96.10
58809;DHT22;44579;51.672;7.834;2022-12-18T15:20:38;-2.40;96.10
58809;DHT22;44579;51.672;7.834;2022-12-18T15:23:16;-2.40;96.10
58809;DHT22;44579;51.672;7.834;2022-12-18T15:25:43;-2.30;96.20
58809;DHT22;44579;51.672;7.834;2022-12-18T15:28:17;-2.20;96.50
58809;DHT22;44579;51.672;7.834;2022-12-18T15:30:59;-2.20;96.10
58809;DHT22;44579;51.672;7.834;2022-12-18T15:33:29;-2.20;96.00
58809;DHT22;44579;51.672;7.834;2022-12-18T15:35:57;-2.10;96.00
58809;DHT22;44579;51.672;7.834;2022-12-18T15:38:24;-2.10;96.00
58809;DHT22;44579;51.672;7.834;2022-12-18T15:40:52;-2.10;96.00
58809;DHT22;44579;51.672;7.834;2022-12-18T15:43:22;-2.00;96.00
58809;DHT22;44579;51.672;7.834;2022-12-18T15:48:28;-2.10;96.00
58809;DHT22;44579;51.672;7.834;2022-12-18T15:50:56;-2.00;96.00
58809;DHT22;44579;51.672;7.834;2022-12-18T15:53:32;-2.00;96.00
58809;DHT22;44579;51.672;7.834;2022-12-18T15:56:00;-2.00;96.00
58809;DHT22;44579;51.672;7.834;2022-12-18T15:58:45;-2.00;96.20
58809;DHT22;44579;51.672;7.834;2022-12-18T16:01:12;-1.90;96.10
58809;DHT22;44579;51.672;7.834;2022-12-18T16:03:39;-1.90;96.10
58809;DHT22;44579;51.672;7.834;2022-12-18T16:06:08;-1.90;96.00
58809;DHT22;44579;51.672;7.834;2022-12-18T16:08:35;-2.00;96.00
58809;DHT22;44579;51.672;7.834;2022-12-18T16:11:02;-2.00;96.00
58809;DHT22;44579;51.672;7.834;2022-12-18T16:13:29;-2.00;96.10
58809;DHT22;44579;51.672;7.834;2022-12-18T16:15:55;-2.00;96.10
58809;DHT22;44579;51.672;7.834;2022-12-18T16:18:22;-2.00;96.20
58809;DHT22;44579;51.672;7.834;2022-12-18T16:20:49;-2.00;96.20
58809;DHT22;44579;51.672;7.834;2022-12-18T16:23:16;-2.00;96.20
58809;DHT22;44579;51.672;7.834;2022-12-18T16:25:42;-2.00;96.70
58809;DHT22;44579;51.672;7.834;2022-12-18T16:28:09;-2.10;96.30
58809;DHT22;44579;51.672;7.834;2022-12-18T16:30:36;-2.00;96.40
58809;DHT22;44579;51.672;7.834;2022-12-18T16:33:04;-2.00;96.30
58809;DHT22;44579;51.672;7.834;2022-12-18T16:35:33;-2.00;96.30
58809;DHT22;44579;51.672;7.834;2022-12-18T16:38:00;-2.00;96.70
58809;DHT22;44579;51.672;7.834;2022-12-18T16:40:26;-2.00;96.30
58809;DHT22;44579;51.672;7.834;2022-12-18T16:42:53;-2.00;96.30
58809;DHT22;44579;51.672;7.834;2022-12-18T16:45:20;-2.00;96.40
58809;DHT22;44579;51.672;7.834;2022-12-18T16:47:47;-2.00;96.40
58809;DHT22;44579;51.672;7.834;2022-12-18T16:50:13;-1.90;96.40
58809;DHT22;44579;51.672;7.834;2022-12-18T16:52:40;-1.90;96.40
58809;DHT22;44579;51.672;7.834;2022-12-18T16:55:07;-2.00;96.40
58809;DHT22;44579;51.672;7.834;2022-12-18T16:57:34;-2.00;96.40
58809;DHT22;44579;51.672;7.834;2022-12-18T17:00:01;-1.90;96.40
58809;DHT22;44579;51.672;7.834;2022-12-18T17:02:31;-1.90;96.30
58809;DHT22;44579;51.672;7.834;2022-12-18T17:04:59;-1.90;96.30
58809;DHT22;44579;51.672;7.834;2022-12-18T17:07:26;-1.90;96.30
58809;DHT22;44579;51.672;7.834;2022-12-18T17:09:53;-1.90;96.30
58809;DHT22;44579;51.672;7.834;2022-12-18T17:12:20;-1.90;96.30
58809;DHT22;44579;51.672;7.834;2022-12-18T17:14:47;-1.90;96.30
58809;DHT22;44579;51.672;7.834;2022-12-18T17:17:14;-1.90;96.30
58809;DHT22;44579;51.672;7.834;2022-12-18T17:19:50;-1.90;96.30
58809;DHT22;44579;51.672;7.834;2022-12-18T17:22:17;-1.90;96.30
58809;DHT22;44579;51.672;7.834;2022-12-18T17:24:45;-1.90;96.30
58809;DHT22;44579;51.672;7.834;2022-12-18T17:27:11;-1.90;96.30